createdAt,value
2023-05-06T00:00:27.967Z,249.93
2023-05-06T00:01:28.177Z,249.72
2023-05-06T00:02:28.447Z,249.97
2023-05-06T00:03:28.809Z,248.12
2023-05-06T00:04:28.855Z,244.96
2023-05-06T00:05:29.004Z,242.47
2023-05-06T00:06:29.197Z,241.88
2023-05-06T00:07:29.376Z,243.24
2023-05-06T00:08:29.609Z,242.43
2023-05-06T00:09:29.839Z,241.61
2023-05-06T00:10:30.811Z,240.15
2023-05-06T00:11:30.244Z,240.84
2023-05-06T00:12:30.452Z,241.47
2023-05-06T00:13:30.634Z,240.74
2023-05-06T00:14:30.867Z,240.70
2023-05-06T00:15:32.254Z,240.40
2023-05-06T00:16:31.325Z,240.38
2023-05-06T00:17:31.530Z,239.49
2023-05-06T00:18:31.759Z,239.82
2023-05-06T00:19:32.104Z,239.74
2023-05-06T00:20:32.139Z,241.17
2023-05-06T00:21:32.349Z,241.27
2023-05-06T00:22:32.553Z,241.45
2023-05-06T00:23:32.763Z,241.74
2023-05-06T00:24:32.995Z,243.13
2023-05-06T00:25:33.184Z,244.87
2023-05-06T00:26:33.413Z,245.32
2023-05-06T00:27:33.625Z,245.43
2023-05-06T00:28:33.857Z,246.03
2023-05-06T00:29:34.056Z,246.20
2023-05-06T00:30:34.278Z,246.68
2023-05-06T00:31:34.526Z,246.58
2023-05-06T00:32:34.728Z,245.69
2023-05-06T00:33:34.976Z,244.22
2023-05-06T00:34:35.148Z,244.38
2023-05-06T00:35:35.355Z,245.65
2023-05-06T00:36:35.590Z,247.20
2023-05-06T00:37:35.803Z,247.92
2023-05-06T00:38:36.013Z,247.79
2023-05-06T00:39:36.203Z,246.67
2023-05-06T00:40:36.474Z,245.08
2023-05-06T00:41:36.584Z,245.12
2023-05-06T00:42:36.774Z,245.57
2023-05-06T00:43:36.954Z,246.94
2023-05-06T00:44:37.198Z,246.93
2023-05-06T00:45:37.508Z,246.96
2023-05-06T00:46:37.633Z,246.99
2023-05-06T00:47:37.885Z,248.11
2023-05-06T00:48:38.017Z,249.47
2023-05-06T00:49:38.176Z,249.43
2023-05-06T00:50:38.355Z,246.09
2023-05-06T00:51:38.556Z,244.86
2023-05-06T00:52:38.771Z,244.62
2023-05-06T00:53:38.941Z,243.00
2023-05-06T00:54:39.113Z,240.94
2023-05-06T00:55:39.359Z,240.53
2023-05-06T00:56:39.563Z,240.44
2023-05-06T00:57:39.769Z,244.68
2023-05-06T00:58:39.994Z,247.14
2023-05-06T00:59:40.185Z,243.94
2023-05-06T01:00:40.440Z,244.26
2023-05-06T01:01:40.609Z,244.47
2023-05-06T01:02:47.479Z,244.32
2023-05-06T01:03:42.084Z,244.38
2023-05-06T01:04:41.084Z,244.58
2023-05-06T01:05:41.214Z,245.10
2023-05-06T01:06:41.378Z,246.38
2023-05-06T01:07:41.567Z,247.15
2023-05-06T01:08:41.700Z,247.05
2023-05-06T01:09:41.882Z,247.91
2023-05-06T01:10:42.126Z,248.12
2023-05-06T01:11:42.209Z,247.90
2023-05-06T01:12:42.445Z,247.64
2023-05-06T01:13:42.530Z,246.72
2023-05-06T01:14:42.709Z,247.31
2023-05-06T01:15:42.866Z,247.12
2023-05-06T01:16:43.877Z,243.79
2023-05-06T01:17:43.235Z,243.35
2023-05-06T01:18:43.428Z,243.91
2023-05-06T01:19:43.636Z,244.22
2023-05-06T01:20:43.887Z,243.99
2023-05-06T01:21:44.044Z,243.51
2023-05-06T01:22:44.257Z,244.28
2023-05-06T01:23:44.502Z,244.50
2023-05-06T01:24:44.684Z,244.51
2023-05-06T01:25:44.847Z,245.08
2023-05-06T01:26:45.044Z,245.30
2023-05-06T01:27:45.248Z,243.38
2023-05-06T01:28:45.437Z,242.68
2023-05-06T01:29:45.629Z,241.66
2023-05-06T01:30:45.867Z,240.58
2023-05-06T01:31:46.036Z,236.99
2023-05-06T01:32:46.271Z,235.64
2023-05-06T01:33:46.439Z,235.06
2023-05-06T01:34:46.637Z,233.61
2023-05-06T01:35:46.815Z,234.11
2023-05-06T01:36:47.017Z,234.24
2023-05-06T01:37:47.217Z,234.55
2023-05-06T01:38:47.388Z,234.34
2023-05-06T01:39:47.560Z,234.80
2023-05-06T01:40:47.767Z,234.88
2023-05-06T01:41:48.002Z,232.21
2023-05-06T01:42:48.256Z,232.49
2023-05-06T01:43:48.498Z,231.33
2023-05-06T01:44:48.726Z,230.44
2023-05-06T01:45:48.951Z,231.00
2023-05-06T01:46:49.220Z,229.02
2023-05-06T01:47:49.386Z,227.85
2023-05-06T01:48:49.523Z,226.22
2023-05-06T01:49:49.725Z,224.14
2023-05-06T01:50:49.933Z,224.69
2023-05-06T01:51:50.135Z,226.92
2023-05-06T01:52:50.392Z,226.35
2023-05-06T01:53:50.513Z,227.60
2023-05-06T01:54:50.689Z,228.14
2023-05-06T01:55:50.912Z,228.75
2023-05-06T01:56:51.097Z,228.67
2023-05-06T01:57:51.310Z,225.96
2023-05-06T01:58:51.566Z,223.27
2023-05-06T01:59:51.818Z,223.85
2023-05-06T02:00:52.031Z,223.12
2023-05-06T02:01:52.401Z,221.72
2023-05-06T02:02:52.525Z,222.19
2023-05-06T02:03:52.983Z,221.17
2023-05-06T02:04:52.840Z,219.51
2023-05-06T02:05:53.038Z,218.75
2023-05-06T02:06:53.229Z,219.51
2023-05-06T02:07:53.402Z,219.52
2023-05-06T02:08:53.578Z,219.58
2023-05-06T02:09:53.752Z,219.66
2023-05-06T02:10:53.962Z,220.04
2023-05-06T02:11:54.157Z,221.16
2023-05-06T02:12:54.350Z,221.54
2023-05-06T02:13:54.508Z,221.65
2023-05-06T02:14:54.723Z,220.14
2023-05-06T02:15:55.011Z,218.64
2023-05-06T02:16:55.153Z,217.16
2023-05-06T02:17:55.403Z,217.16
2023-05-06T02:18:55.592Z,215.98
2023-05-06T02:19:55.843Z,214.12
2023-05-06T02:20:56.053Z,213.46
2023-05-06T02:21:56.347Z,212.24
2023-05-06T02:22:56.501Z,213.49
2023-05-06T02:23:56.737Z,212.44
2023-05-06T02:24:56.973Z,211.50
2023-05-06T02:25:57.215Z,212.54
2023-05-06T02:26:57.474Z,213.86
2023-05-06T02:27:57.710Z,213.77
2023-05-06T02:28:57.914Z,210.57
2023-05-06T02:29:58.097Z,208.82
2023-05-06T02:30:58.351Z,211.22
2023-05-06T02:31:58.646Z,212.60
2023-05-06T02:32:58.849Z,211.39
2023-05-06T02:33:59.024Z,211.49
2023-05-06T02:34:59.192Z,213.18
2023-05-06T02:35:59.366Z,215.30
2023-05-06T02:36:59.545Z,215.94
2023-05-06T02:37:59.739Z,219.41
2023-05-06T02:38:59.935Z,222.97
2023-05-06T02:40:00.106Z,221.95
2023-05-06T02:41:00.312Z,221.65
2023-05-06T02:42:00.468Z,221.91
2023-05-06T02:43:00.663Z,222.64
2023-05-06T02:44:00.897Z,223.74
2023-05-06T02:45:01.156Z,224.77
2023-05-06T02:46:01.415Z,227.14
2023-05-06T02:47:01.795Z,227.19
2023-05-06T02:48:01.921Z,228.01
2023-05-06T02:49:02.095Z,229.38
2023-05-06T02:50:02.300Z,230.39
2023-05-06T02:51:02.530Z,231.38
2023-05-06T02:52:02.746Z,232.42
2023-05-06T02:53:02.981Z,232.90
2023-05-06T02:54:03.191Z,232.83
2023-05-06T02:55:03.417Z,231.71
2023-05-06T02:56:03.631Z,228.85
2023-05-06T02:57:03.873Z,228.17
2023-05-06T02:58:04.095Z,228.89
2023-05-06T02:59:04.350Z,229.78
2023-05-06T03:00:04.584Z,231.01
2023-05-06T03:01:04.832Z,231.77
2023-05-06T03:02:05.088Z,233.03
2023-05-06T03:03:05.305Z,233.07
2023-05-06T03:04:05.513Z,234.42
2023-05-06T03:05:05.705Z,234.56
2023-05-06T03:06:05.929Z,233.87
2023-05-06T03:07:06.121Z,233.23
2023-05-06T03:08:06.343Z,233.85
2023-05-06T03:09:06.597Z,234.94
2023-05-06T03:10:06.796Z,233.85
2023-05-06T03:11:08.302Z,231.45
2023-05-06T03:12:07.253Z,228.57
2023-05-06T03:13:07.475Z,227.93
2023-05-06T03:14:07.733Z,227.66
2023-05-06T03:15:08.007Z,231.76
2023-05-06T03:16:08.123Z,235.68
2023-05-06T03:17:08.453Z,236.53
2023-05-06T03:18:08.585Z,237.51
2023-05-06T03:19:08.752Z,238.50
2023-05-06T03:20:09.008Z,239.21
2023-05-06T03:21:09.264Z,235.09
2023-05-06T03:22:09.476Z,229.54
2023-05-06T03:23:09.696Z,227.34
2023-05-06T03:24:09.952Z,228.71
2023-05-06T03:25:10.312Z,230.26
2023-05-06T03:26:10.414Z,231.13
2023-05-06T03:27:10.645Z,231.80
2023-05-06T03:28:10.871Z,233.48
2023-05-06T03:29:11.088Z,233.81
2023-05-06T03:30:11.299Z,234.28
2023-05-06T03:31:11.540Z,235.13
2023-05-06T03:32:11.741Z,234.81
2023-05-06T03:33:12.010Z,233.15
2023-05-06T03:34:12.209Z,233.46
2023-05-06T03:35:12.557Z,234.21
2023-05-06T03:36:12.637Z,234.83
2023-05-06T03:37:12.836Z,234.39
2023-05-06T03:38:13.075Z,234.72
2023-05-06T03:39:13.299Z,235.55
2023-05-06T03:40:13.519Z,237.40
2023-05-06T03:41:13.777Z,238.59
2023-05-06T03:42:14.003Z,239.51
2023-05-06T03:43:14.248Z,240.18
2023-05-06T03:44:14.509Z,241.11
2023-05-06T03:45:14.730Z,239.58
2023-05-06T03:46:15.006Z,239.54
2023-05-06T03:47:15.179Z,239.62
2023-05-06T03:48:15.401Z,240.41
2023-05-06T03:49:15.608Z,239.84
2023-05-06T03:50:15.826Z,239.90
2023-05-06T03:51:16.029Z,238.91
2023-05-06T03:52:16.271Z,239.09
2023-05-06T03:53:16.466Z,239.07
2023-05-06T03:54:16.644Z,239.34
2023-05-06T03:55:16.846Z,239.98
2023-05-06T03:56:17.058Z,241.24
2023-05-06T03:57:17.258Z,240.99
2023-05-06T03:58:17.470Z,240.64
2023-05-06T03:59:17.681Z,241.45
2023-05-06T04:00:17.888Z,242.42
2023-05-06T04:01:18.152Z,243.03
2023-05-06T04:02:18.400Z,244.12
2023-05-06T04:03:18.676Z,245.04
2023-05-06T04:04:18.801Z,245.50
2023-05-06T04:05:19.080Z,245.32
2023-05-06T04:06:19.283Z,245.76
2023-05-06T04:07:19.524Z,246.05
2023-05-06T04:08:19.733Z,244.12
2023-05-06T04:09:19.902Z,242.50
2023-05-06T04:10:20.143Z,240.87
2023-05-06T04:11:20.376Z,239.51
2023-05-06T04:12:21.309Z,238.91
2023-05-06T04:13:20.832Z,238.27
2023-05-06T04:14:21.002Z,238.08
2023-05-06T04:15:21.237Z,237.83
2023-05-06T04:16:21.513Z,239.80
2023-05-06T04:17:21.736Z,239.79
2023-05-06T04:18:22.006Z,240.37
2023-05-06T04:19:22.169Z,241.86
2023-05-06T04:20:22.371Z,242.97
2023-05-06T04:21:22.587Z,243.72
2023-05-06T04:22:22.792Z,243.87
2023-05-06T04:23:22.965Z,244.48
2023-05-06T04:24:23.168Z,244.70
2023-05-06T04:25:23.339Z,243.77
2023-05-06T04:26:23.509Z,244.41
2023-05-06T04:27:23.686Z,244.87
2023-05-06T04:28:23.855Z,245.15
2023-05-06T04:29:24.044Z,245.22
2023-05-06T04:30:24.273Z,245.98
2023-05-06T04:31:24.414Z,244.68
2023-05-06T04:32:24.734Z,243.31
2023-05-06T04:33:24.890Z,241.24
2023-05-06T04:34:25.235Z,240.42
2023-05-06T04:35:25.302Z,241.49
2023-05-06T04:36:25.540Z,243.50
2023-05-06T04:37:25.751Z,245.34
2023-05-06T04:38:25.986Z,246.74
2023-05-06T04:39:26.169Z,246.76
2023-05-06T04:40:26.356Z,246.24
2023-05-06T04:41:26.517Z,245.26
2023-05-06T04:42:26.727Z,245.83
2023-05-06T04:43:26.903Z,245.78
2023-05-06T04:44:27.095Z,244.28
2023-05-06T04:45:27.323Z,242.96
2023-05-06T04:46:27.453Z,241.33
2023-05-06T04:47:27.723Z,239.09
2023-05-06T04:48:27.816Z,237.74
2023-05-06T04:49:27.982Z,237.80
2023-05-06T04:50:28.166Z,237.65
2023-05-06T04:51:28.372Z,240.84
2023-05-06T04:52:28.569Z,242.26
2023-05-06T04:53:28.784Z,244.81
2023-05-06T04:54:28.950Z,243.03
2023-05-06T04:55:29.152Z,240.94
2023-05-06T04:56:29.348Z,241.50
2023-05-06T04:57:29.567Z,243.64
2023-05-06T04:58:29.808Z,248.08
2023-05-06T04:59:30.017Z,250.00
2023-05-06T05:00:30.251Z,250.22
2023-05-06T05:01:30.482Z,249.44
2023-05-06T05:02:30.802Z,245.34
2023-05-06T05:03:31.153Z,244.78
2023-05-06T05:04:31.047Z,242.24
2023-05-06T05:05:31.218Z,239.26
2023-05-06T05:06:31.429Z,241.14
2023-05-06T05:07:31.630Z,244.24
2023-05-06T05:08:31.872Z,248.46
2023-05-06T05:09:32.104Z,249.91
2023-05-06T05:10:32.360Z,250.00
2023-05-06T05:11:32.555Z,250.00
2023-05-06T05:12:32.784Z,245.33
2023-05-06T05:13:32.941Z,241.46
2023-05-06T05:14:33.143Z,239.80
2023-05-06T05:15:33.343Z,238.86
2023-05-06T05:16:33.619Z,237.23
2023-05-06T05:17:33.772Z,236.48
2023-05-06T05:18:33.976Z,237.03
2023-05-06T05:19:34.149Z,237.29
2023-05-06T05:20:34.351Z,234.54
2023-05-06T05:21:34.592Z,231.97
2023-05-06T05:22:34.821Z,231.97
2023-05-06T05:23:35.041Z,232.44
2023-05-06T05:24:35.209Z,235.07
2023-05-06T05:25:35.385Z,237.63
2023-05-06T05:26:35.548Z,237.32
2023-05-06T05:27:35.754Z,234.96
2023-05-06T05:28:35.976Z,230.74
2023-05-06T05:29:36.196Z,231.52
2023-05-06T05:30:36.426Z,231.74
2023-05-06T05:31:36.722Z,229.54
2023-05-06T05:32:36.953Z,227.60
2023-05-06T05:33:37.133Z,228.33
2023-05-06T05:34:37.271Z,228.39
2023-05-06T05:35:37.441Z,228.66
2023-05-06T05:36:37.616Z,228.67
2023-05-06T05:37:37.765Z,226.84
2023-05-06T05:38:37.939Z,228.59
2023-05-06T05:39:38.098Z,228.78
2023-05-06T05:40:38.268Z,229.53
2023-05-06T05:41:38.459Z,228.48
2023-05-06T05:42:38.598Z,228.66
2023-05-06T05:43:38.751Z,229.03
2023-05-06T05:44:38.931Z,231.21
2023-05-06T05:45:39.126Z,232.68
2023-05-06T05:46:39.333Z,234.07
2023-05-06T05:47:39.499Z,232.61
2023-05-06T05:48:39.717Z,230.78
2023-05-06T05:49:39.813Z,228.25
2023-05-06T05:50:39.988Z,231.48
2023-05-06T05:51:40.155Z,231.71
2023-05-06T05:52:40.329Z,232.67
2023-05-06T05:53:40.477Z,233.49
2023-05-06T05:54:40.645Z,235.75
2023-05-06T05:55:40.782Z,236.81
2023-05-06T05:56:40.959Z,236.44
2023-05-06T05:57:41.096Z,235.98
2023-05-06T05:58:41.265Z,235.89
2023-05-06T05:59:41.406Z,232.00
2023-05-06T06:00:41.594Z,231.40
2023-05-06T06:01:41.736Z,232.39
2023-05-06T06:02:41.940Z,233.68
2023-05-06T06:03:42.318Z,233.63
2023-05-06T06:04:42.233Z,232.17
2023-05-06T06:05:42.336Z,227.28
2023-05-06T06:06:42.508Z,224.98
2023-05-06T06:07:42.743Z,224.25
2023-05-06T06:08:42.938Z,223.43
2023-05-06T06:09:43.098Z,220.85
2023-05-06T06:10:43.269Z,217.13
2023-05-06T06:11:43.466Z,215.67
2023-05-06T06:12:43.796Z,215.93
2023-05-06T06:13:44.017Z,217.98
2023-05-06T06:14:44.124Z,215.10
2023-05-06T06:15:44.289Z,214.67
2023-05-06T06:16:44.545Z,217.36
2023-05-06T06:17:44.637Z,213.86
2023-05-06T06:18:44.826Z,205.32
2023-05-06T06:19:45.094Z,205.25
2023-05-06T06:20:45.159Z,216.56
2023-05-06T06:21:45.305Z,214.65
2023-05-06T06:22:45.508Z,205.64
2023-05-06T06:23:45.705Z,204.02
2023-05-06T06:24:45.949Z,198.61
2023-05-06T06:25:46.146Z,189.23
2023-05-06T06:26:46.360Z,181.27
2023-05-06T06:27:46.564Z,181.22
2023-05-06T06:28:46.707Z,180.32
2023-05-06T06:29:46.881Z,176.48
2023-05-06T06:30:47.069Z,174.05
2023-05-06T06:31:47.279Z,172.63
2023-05-06T06:32:47.457Z,172.46
2023-05-06T06:33:47.699Z,178.92
2023-05-06T06:34:47.869Z,188.07
2023-05-06T06:35:48.002Z,196.52
2023-05-06T06:36:48.202Z,195.96
2023-05-06T06:37:48.399Z,197.27
2023-05-06T06:38:48.590Z,192.49
2023-05-06T06:39:48.663Z,192.61
2023-05-06T06:40:48.838Z,193.01
2023-05-06T06:41:48.955Z,195.12
2023-05-06T06:42:49.091Z,198.48
2023-05-06T06:43:49.267Z,192.76
2023-05-06T06:44:49.359Z,188.28
2023-05-06T06:45:49.587Z,189.40
2023-05-06T06:46:49.678Z,191.75
2023-05-06T06:47:49.839Z,187.81
2023-05-06T06:48:49.964Z,181.84
2023-05-06T06:49:50.107Z,179.30
2023-05-06T06:50:50.437Z,181.00
2023-05-06T06:51:50.521Z,180.55
2023-05-06T06:52:50.729Z,173.65
2023-05-06T06:53:50.901Z,162.57
2023-05-06T06:54:51.102Z,153.05
2023-05-06T06:55:51.301Z,149.02
2023-05-06T06:56:51.465Z,149.77
2023-05-06T06:57:51.662Z,169.57
2023-05-06T06:58:53.276Z,183.82
2023-05-06T06:59:52.029Z,184.08
2023-05-06T07:00:52.189Z,187.70
2023-05-06T07:01:52.273Z,198.67
2023-05-06T07:02:52.439Z,212.80
2023-05-06T07:03:52.580Z,240.67
2023-05-06T07:04:52.689Z,238.80
2023-05-06T07:05:52.890Z,229.64
2023-05-06T07:06:52.969Z,211.15
2023-05-06T07:07:53.148Z,207.06
2023-05-06T07:08:53.262Z,215.12
2023-05-06T07:09:53.423Z,205.86
2023-05-06T07:10:53.590Z,209.66
2023-05-06T07:11:53.798Z,210.65
2023-05-06T07:12:54.043Z,208.41
2023-05-06T07:13:54.172Z,211.94
2023-05-06T07:14:54.355Z,215.35
2023-05-06T07:15:54.569Z,218.48
2023-05-06T07:16:54.785Z,219.78
2023-05-06T07:17:54.926Z,219.61
2023-05-06T07:18:55.065Z,219.87
2023-05-06T07:19:55.246Z,219.80
2023-05-06T07:20:55.322Z,211.89
2023-05-06T07:21:55.517Z,209.21
2023-05-06T07:22:55.588Z,210.16
2023-05-06T07:23:55.787Z,211.39
2023-05-06T07:24:55.868Z,202.36
2023-05-06T07:25:55.972Z,194.17
2023-05-06T07:26:56.102Z,193.47
2023-05-06T07:27:56.219Z,191.13
2023-05-06T07:28:56.390Z,195.08
2023-05-06T07:29:56.555Z,209.97
2023-05-06T07:30:56.722Z,208.47
2023-05-06T07:31:56.827Z,208.24
2023-05-06T07:32:57.052Z,182.54
2023-05-06T07:33:57.180Z,171.88
2023-05-06T07:34:57.322Z,164.32
2023-05-06T07:35:57.496Z,155.82
2023-05-06T07:36:57.792Z,151.55
2023-05-06T07:37:58.342Z,137.45
2023-05-06T07:38:58.016Z,128.22
2023-05-06T07:39:58.173Z,125.49
2023-05-06T07:40:58.312Z,114.83
2023-05-06T07:41:58.484Z,116.14
2023-05-06T07:42:58.647Z,121.00
2023-05-06T07:43:58.798Z,122.07
2023-05-06T07:44:58.966Z,116.51
2023-05-06T07:45:59.137Z,109.41
2023-05-06T07:46:59.300Z,107.52
2023-05-06T07:47:59.402Z,111.50
2023-05-06T07:49:00.346Z,94.84
2023-05-06T07:49:59.693Z,101.02
2023-05-06T07:50:59.872Z,70.82
2023-05-06T07:52:00.160Z,50.80
2023-05-06T07:53:00.116Z,85.42
2023-05-06T07:54:00.281Z,101.03
2023-05-06T07:55:00.425Z,103.92
2023-05-06T07:56:00.682Z,94.77
2023-05-06T07:57:00.747Z,91.69
2023-05-06T07:58:00.932Z,90.01
2023-05-06T07:59:01.114Z,90.57
2023-05-06T08:00:01.264Z,84.15
2023-05-06T08:01:02.363Z,81.57
2023-05-06T08:02:01.748Z,79.96
2023-05-06T08:03:01.824Z,76.99
2023-05-06T08:04:02.048Z,75.06
2023-05-06T08:05:02.107Z,69.90
2023-05-06T08:06:02.242Z,71.56
2023-05-06T08:07:02.420Z,77.81
2023-05-06T08:08:02.547Z,64.73
2023-05-06T08:09:02.665Z,57.04
2023-05-06T08:10:02.797Z,57.90
2023-05-06T08:11:03.002Z,35.10
2023-05-06T08:12:03.083Z,38.05
2023-05-06T08:13:03.262Z,34.52
2023-05-06T08:14:03.357Z,19.27
2023-05-06T08:15:03.482Z,6.60
2023-05-06T08:16:03.660Z,0.00
2023-05-06T08:17:03.790Z,8.49
2023-05-06T08:18:13.684Z,26.38
2023-05-06T08:19:05.007Z,8.94
2023-05-06T08:20:04.093Z,6.97
2023-05-06T08:21:04.276Z,17.50
2023-05-06T08:22:04.317Z,19.88
2023-05-06T08:23:04.463Z,29.82
2023-05-06T08:24:05.427Z,27.30
2023-05-06T08:25:04.611Z,23.94
2023-05-06T08:26:04.727Z,28.43
2023-05-06T08:27:04.821Z,34.21
2023-05-06T08:28:04.915Z,27.65
2023-05-06T08:29:05.043Z,12.04
2023-05-06T08:30:05.156Z,21.20
2023-05-06T08:31:05.285Z,20.99
2023-05-06T08:32:05.516Z,13.36
2023-05-06T08:33:05.651Z,10.99
2023-05-06T08:34:05.710Z,8.45
2023-05-06T08:35:05.809Z,8.48
2023-05-06T08:36:05.936Z,8.60
2023-05-06T08:37:06.872Z,11.95
2023-05-06T08:38:06.173Z,20.73
2023-05-06T08:39:06.250Z,31.52
2023-05-06T08:40:06.316Z,35.67
2023-05-06T08:41:06.431Z,10.55
2023-05-06T08:42:06.569Z,6.25
2023-05-06T08:43:06.709Z,15.59
2023-05-06T08:44:06.825Z,32.71
2023-05-06T08:45:06.929Z,43.54
2023-05-06T08:46:07.091Z,36.69
2023-05-06T08:47:07.111Z,41.39
2023-05-06T08:48:07.281Z,49.30
2023-05-06T08:49:07.409Z,38.66
2023-05-06T08:50:07.573Z,43.56
2023-05-06T08:51:07.700Z,41.99
2023-05-06T08:52:07.817Z,22.25
2023-05-06T08:53:07.972Z,33.31
2023-05-06T08:54:08.107Z,33.87
2023-05-06T08:55:08.377Z,20.59
2023-05-06T08:56:08.354Z,5.25
2023-05-06T08:57:10.319Z,2.86
2023-05-06T08:58:08.598Z,5.37
2023-05-06T08:59:08.729Z,2.62
2023-05-06T09:00:08.794Z,0.00
2023-05-06T09:01:08.886Z,0.00
2023-05-06T09:02:09.941Z,0.98
2023-05-06T09:03:09.193Z,6.72
2023-05-06T09:04:09.078Z,12.48
2023-05-06T09:05:09.472Z,23.39
2023-05-06T09:06:09.227Z,32.45
2023-05-06T09:07:09.290Z,40.11
2023-05-06T09:08:09.407Z,41.76
2023-05-06T09:09:09.475Z,43.09
2023-05-06T09:10:09.867Z,53.14
2023-05-06T09:11:09.576Z,59.91
2023-05-06T09:12:09.640Z,58.56
2023-05-06T09:13:09.767Z,63.91
2023-05-06T09:14:09.824Z,58.72
2023-05-06T09:15:10.087Z,54.60
2023-05-06T09:16:10.029Z,51.32
2023-05-06T09:17:10.121Z,35.85
2023-05-06T09:18:10.196Z,32.72
2023-05-06T09:19:10.266Z,55.19
2023-05-06T09:20:10.336Z,72.97
2023-05-06T09:21:10.463Z,80.18
2023-05-06T09:22:10.598Z,90.38
2023-05-06T09:23:10.704Z,96.95
2023-05-06T09:24:10.906Z,92.96
2023-05-06T09:25:11.159Z,91.46
2023-05-06T09:26:11.165Z,89.78
2023-05-06T09:27:12.351Z,81.42
2023-05-06T09:28:11.617Z,84.19
2023-05-06T09:29:11.828Z,87.46
2023-05-06T09:30:12.259Z,79.27
2023-05-06T09:31:12.227Z,74.76
2023-05-06T09:32:12.351Z,72.15
2023-05-06T09:33:12.646Z,67.87
2023-05-06T09:34:12.752Z,69.11
2023-05-06T09:35:13.130Z,71.23
2023-05-06T09:36:13.107Z,74.68
2023-05-06T09:37:13.323Z,80.39
2023-05-06T09:38:13.510Z,82.23
2023-05-06T09:39:13.664Z,82.04
2023-05-06T09:40:13.838Z,82.66
2023-05-06T09:41:14.007Z,84.54
2023-05-06T09:42:14.183Z,89.39
2023-05-06T09:43:14.341Z,92.95
2023-05-06T09:44:14.526Z,91.51
2023-05-06T09:45:14.655Z,91.41
2023-05-06T09:46:14.829Z,93.29
2023-05-06T09:47:14.982Z,93.93
2023-05-06T09:48:15.213Z,92.52
2023-05-06T09:49:15.279Z,91.50
2023-05-06T09:50:15.415Z,92.84
2023-05-06T09:51:15.629Z,96.18
2023-05-06T09:52:15.812Z,98.32
2023-05-06T09:53:16.028Z,92.87
2023-05-06T09:54:16.164Z,92.46
2023-05-06T09:55:16.369Z,94.46
2023-05-06T09:56:16.590Z,94.75
2023-05-06T09:57:16.850Z,90.86
2023-05-06T09:58:16.994Z,87.83
2023-05-06T09:59:17.159Z,87.13
2023-05-06T10:00:17.381Z,89.98
2023-05-06T10:01:32.761Z,84.48
2023-05-06T10:02:18.705Z,84.53
2023-05-06T10:03:17.974Z,85.31
2023-05-06T10:04:18.167Z,86.27
2023-05-06T10:05:18.572Z,88.42
2023-05-06T10:06:18.293Z,90.27
2023-05-06T10:07:18.462Z,87.66
2023-05-06T10:08:18.911Z,83.67
2023-05-06T10:09:18.734Z,85.44
2023-05-06T10:10:18.929Z,79.85
2023-05-06T10:11:19.027Z,78.27
2023-05-06T10:12:19.213Z,76.26
2023-05-06T10:13:19.374Z,73.16
2023-05-06T10:14:19.465Z,73.47
2023-05-06T10:15:19.613Z,73.75
2023-05-06T10:16:19.824Z,74.65
2023-05-06T10:17:20.001Z,67.37
2023-05-06T10:18:20.180Z,63.27
2023-05-06T10:19:20.365Z,62.55
2023-05-06T10:20:20.570Z,60.23
2023-05-06T10:21:20.850Z,63.16
2023-05-06T10:22:20.973Z,69.27
2023-05-06T10:23:21.407Z,71.44
2023-05-06T10:24:21.327Z,64.65
2023-05-06T10:25:21.509Z,70.82
2023-05-06T10:26:21.711Z,65.55
2023-05-06T10:27:21.932Z,64.15
2023-05-06T10:28:31.305Z,58.84
2023-05-06T10:29:23.183Z,58.94
2023-05-06T10:30:22.359Z,61.19
2023-05-06T10:31:22.474Z,63.00
2023-05-06T10:32:22.756Z,72.22
2023-05-06T10:33:22.741Z,85.16
2023-05-06T10:34:22.884Z,74.04
2023-05-06T10:35:23.018Z,68.11
2023-05-06T10:36:23.153Z,58.01
2023-05-06T10:37:23.298Z,69.24
2023-05-06T10:38:23.439Z,61.93
2023-05-06T10:39:23.583Z,57.81
2023-05-06T10:40:23.705Z,72.71
2023-05-06T10:41:23.837Z,72.96
2023-05-06T10:42:23.961Z,70.27
2023-05-06T10:43:24.131Z,58.49
2023-05-06T10:44:24.250Z,58.17
2023-05-06T10:45:24.479Z,70.85
2023-05-06T10:46:24.510Z,66.40
2023-05-06T10:47:24.625Z,48.76
2023-05-06T10:48:24.744Z,44.16
2023-05-06T10:49:24.842Z,44.58
2023-05-06T10:50:24.978Z,29.26
2023-05-06T10:51:25.144Z,32.19
2023-05-06T10:52:25.274Z,33.81
2023-05-06T10:53:25.392Z,37.39
2023-05-06T10:54:25.497Z,52.35
2023-05-06T10:55:25.691Z,50.32
2023-05-06T10:56:25.805Z,43.49
2023-05-06T10:57:25.981Z,32.02
2023-05-06T10:58:25.978Z,27.53
2023-05-06T10:59:26.060Z,26.27
2023-05-06T11:00:26.141Z,39.42
2023-05-06T11:01:26.249Z,38.93
2023-05-06T11:02:26.443Z,42.99
2023-05-06T11:03:26.551Z,38.17
2023-05-06T11:04:26.572Z,39.44
2023-05-06T11:05:26.632Z,31.84
2023-05-06T11:06:26.743Z,37.66
2023-05-06T11:07:26.860Z,39.71
2023-05-06T11:08:26.991Z,44.80
2023-05-06T11:09:27.061Z,40.58
2023-05-06T11:10:27.165Z,32.49
2023-05-06T11:11:27.266Z,37.73
2023-05-06T11:12:27.440Z,37.96
2023-05-06T11:13:27.950Z,44.21
2023-05-06T11:14:27.668Z,32.17
2023-05-06T11:15:27.793Z,27.77
2023-05-06T11:16:27.971Z,25.82
2023-05-06T11:17:28.116Z,24.56
2023-05-06T11:18:28.212Z,25.00
2023-05-06T11:19:28.379Z,22.43
2023-05-06T11:20:28.537Z,25.81
2023-05-06T11:21:28.712Z,31.46
2023-05-06T11:22:28.884Z,35.50
2023-05-06T11:23:29.049Z,33.33
2023-05-06T11:24:29.203Z,40.35
2023-05-06T11:25:29.356Z,33.37
2023-05-06T11:26:29.481Z,35.60
2023-05-06T11:27:29.639Z,25.00
2023-05-06T11:28:29.888Z,21.42
2023-05-06T11:29:29.990Z,28.20
2023-05-06T11:30:30.120Z,27.22
2023-05-06T11:31:30.363Z,33.44
2023-05-06T11:32:30.439Z,26.48
2023-05-06T11:33:30.581Z,28.55
2023-05-06T11:34:30.747Z,24.89
2023-05-06T11:35:30.846Z,37.58
2023-05-06T11:36:30.992Z,32.92
2023-05-06T11:37:31.143Z,33.36
2023-05-06T11:38:31.202Z,18.57
2023-05-06T11:39:31.317Z,21.66
2023-05-06T11:40:31.429Z,25.69
2023-05-06T11:41:31.554Z,23.28
2023-05-06T11:42:31.646Z,30.78
2023-05-06T11:43:31.760Z,25.50
2023-05-06T11:44:31.885Z,27.41
2023-05-06T11:45:32.026Z,22.50
2023-05-06T11:46:32.222Z,29.55
2023-05-06T11:47:32.393Z,24.35
2023-05-06T11:48:32.450Z,22.20
2023-05-06T11:49:32.756Z,24.43
2023-05-06T11:50:32.595Z,25.27
2023-05-06T11:51:32.775Z,29.28
2023-05-06T11:52:32.798Z,26.84
2023-05-06T11:53:32.915Z,21.79
2023-05-06T11:54:33.020Z,30.20
2023-05-06T11:55:33.140Z,30.64
2023-05-06T11:56:33.250Z,32.75
2023-05-06T11:57:33.346Z,28.67
2023-05-06T11:58:33.469Z,24.34
2023-05-06T11:59:33.611Z,25.27
2023-05-06T12:00:33.782Z,28.57
2023-05-06T12:01:33.819Z,30.64
2023-05-06T12:02:34.083Z,27.75
2023-05-06T12:03:34.262Z,28.46
2023-05-06T12:04:34.330Z,28.61
2023-05-06T12:05:34.448Z,29.74
2023-05-06T12:06:34.577Z,28.11
2023-05-06T12:07:34.735Z,32.31
2023-05-06T12:08:34.903Z,32.06
2023-05-06T12:09:35.005Z,25.00
2023-05-06T12:10:35.175Z,25.74
2023-05-06T12:11:35.331Z,25.89
2023-05-06T12:12:35.497Z,34.19
2023-05-06T12:13:35.628Z,33.90
2023-05-06T12:14:35.741Z,36.76
2023-05-06T12:15:35.836Z,33.39
2023-05-06T12:16:36.074Z,38.39
2023-05-06T12:17:36.071Z,34.35
2023-05-06T12:18:36.252Z,31.62
2023-05-06T12:19:36.338Z,31.73
2023-05-06T12:20:36.446Z,38.94
2023-05-06T12:21:36.586Z,36.22
2023-05-06T12:22:36.720Z,40.55
2023-05-06T12:23:36.898Z,35.01
2023-05-06T12:24:36.998Z,30.83
2023-05-06T12:25:37.162Z,36.93
2023-05-06T12:26:37.277Z,47.07
2023-05-06T12:27:37.438Z,39.17
2023-05-06T12:28:37.581Z,40.47
2023-05-06T12:29:37.696Z,42.07
2023-05-06T12:30:37.903Z,32.63
2023-05-06T12:31:38.031Z,33.59
2023-05-06T12:32:38.230Z,32.71
2023-05-06T12:33:38.284Z,35.08
2023-05-06T12:34:38.503Z,33.49
2023-05-06T12:35:38.598Z,32.74
2023-05-06T12:36:38.730Z,28.88
2023-05-06T12:37:38.840Z,30.23
2023-05-06T12:38:38.958Z,28.79
2023-05-06T12:39:39.490Z,27.70
2023-05-06T12:40:39.147Z,23.95